Time;durP1;ratioP1;P1;durP2;ratioP2;P2;SDS_P1;SDS_P2;PMS_P1;PMS_P2;Temp;Humidity;BMP_temperature;BMP_pressure;BME280_temperature;BME280_humidity;BME280_pressure;Samples;Min_cycle;Max_cycle;Signal;HPM_P1;HPM_P2
2020/12/09 00:00:14;;;;;;;37.40;16.17;;;;;;;4.67;100.00;97000.63;5080159;28;20557;-74
2020/12/09 00:02:41;;;;;;;37.77;16.07;;;;;;;4.49;100.00;97000.22;5083545;28;20268;-74
2020/12/09 00:05:11;;;;;;;41.90;15.07;;;;;;;4.48;100.00;97009.97;5083684;28;20212;-74
2020/12/09 00:07:38;;;;;;;36.07;15.60;;;;;;;4.69;100.00;97014.44;5081406;28;20221;-74
2020/12/09 00:10:06;;;;;;;40.70;17.00;;;;;;;4.59;100.00;97014.78;5072264;28;20566;-75
2020/12/09 00:12:34;;;;;;;31.30;14.73;;;;;;;4.68;100.00;97021.53;5071764;28;20202;-75
2020/12/09 00:15:03;;;;;;;37.27;15.83;;;;;;;4.74;100.00;97022.63;5080040;28;20201;-75
2020/12/09 00:17:30;;;;;;;34.17;14.43;;;;;;;4.71;100.00;97030.94;5080283;28;20234;-75
2020/12/09 00:19:57;;;;;;;34.37;15.00;;;;;;;4.69;100.00;97025.03;5082283;28;20319;-75
2020/12/09 00:22:24;;;;;;;32.47;14.63;;;;;;;4.48;100.00;97030.28;5082372;28;20665;-74
2020/12/09 00:24:51;;;;;;;36.37;14.77;;;;;;;4.55;100.00;97026.72;5081046;28;20658;-75
2020/12/09 00:27:18;;;;;;;38.07;16.27;;;;;;;4.50;100.00;97034.38;5075613;28;20328;-74
2020/12/09 00:29:44;;;;;;;39.00;16.47;;;;;;;4.61;100.00;97030.41;5084008;28;20220;-75
2020/12/09 00:32:12;;;;;;;30.60;14.30;;;;;;;4.50;100.00;97031.75;5087639;28;20655;-75
2020/12/09 00:34:39;;;;;;;37.20;15.70;;;;;;;4.69;100.00;97032.94;5085010;28;20219;-75
2020/12/09 00:37:06;;;;;;;34.03;15.50;;;;;;;4.71;100.00;97033.56;5079706;28;20740;-74
2020/12/09 00:39:32;;;;;;;37.00;15.50;;;;;;;4.77;100.00;97032.84;5069382;28;20209;-74
2020/12/09 00:42:00;;;;;;;35.17;14.93;;;;;;;4.81;100.00;97024.34;5075580;28;20206;-75
2020/12/09 00:44:27;;;;;;;37.67;16.10;;;;;;;4.71;100.00;97030.94;5084097;28;20205;-75
2020/12/09 00:46:54;;;;;;;40.50;16.20;;;;;;;4.55;100.00;97026.72;5086776;28;20212;-74
2020/12/09 00:49:22;;;;;;;31.87;15.03;;;;;;;4.53;100.00;97030.56;5086650;28;20209;-75
2020/12/09 00:51:48;;;;;;;34.73;16.40;;;;;;;4.49;100.00;97034.56;5083785;28;20198;-76
2020/12/09 00:54:15;;;;;;;40.43;16.00;;;;;;;4.68;100.00;97028.69;5077411;28;20214;-76
2020/12/09 00:56:43;;;;;;;36.90;14.70;;;;;;;4.80;100.00;97032.44;5086994;28;20842;-75
2020/12/09 00:59:10;;;;;;;38.70;15.63;;;;;;;4.68;100.00;97028.69;5087418;28;20601;-76
2020/12/09 01:01:37;;;;;;;40.13;16.20;;;;;;;4.53;100.00;97031.34;5073785;28;20198;-74
2020/12/09 01:04:04;;;;;;;35.23;15.20;;;;;;;4.66;100.00;97033.31;5086664;28;20206;-74
2020/12/09 01:06:34;;;;;;;40.10;15.97;;;;;;;4.72;100.00;97030.75;5083717;28;20565;-75
2020/12/09 01:09:03;;;;;;;37.30;16.80;;;;;;;4.41;100.00;97035.50;5086305;28;20561;-76
2020/12/09 01:11:30;;;;;;;40.83;16.77;;;;;;;4.77;100.00;97033.63;5077884;28;20579;-74
2020/12/09 01:13:57;;;;;;;40.20;15.13;;;;;;;4.66;100.00;97035.94;5083117;28;20789;-74
2020/12/09 01:16:23;;;;;;;38.33;15.33;;;;;;;4.85;100.00;97044.09;5088553;28;20201;-75
2020/12/09 01:18:50;;;;;;;36.37;16.17;;;;;;;4.63;100.00;97053.00;5083541;28;20199;-75
2020/12/09 01:21:26;;;;;;;37.03;15.20;;;;;;;4.79;100.00;97058.06;5083274;28;20688;-76
2020/12/09 01:23:54;;;;;;;41.87;17.07;;;;;;;4.87;100.00;97055.28;5083830;28;20676;-75
2020/12/09 01:26:20;;;;;;;36.60;15.27;;;;;;;4.83;100.00;97055.88;5075215;28;20222;-75
2020/12/09 01:28:47;;;;;;;34.97;14.93;;;;;;;4.89;100.00;97055.09;5084396;28;20215;-75
2020/12/09 01:31:18;;;;;;;36.30;16.57;;;;;;;4.31;100.00;97050.03;5082563;28;20199;-77
2020/12/09 01:33:45;;;;;;;35.93;15.27;;;;;;;4.64;100.00;97048.53;5079092;28;20197;-76
2020/12/09 01:36:12;;;;;;;38.20;15.50;;;;;;;4.67;100.00;97040.25;5076793;28;20197;-77
2020/12/09 01:38:38;;;;;;;37.10;15.77;;;;;;;4.56;100.00;97057.41;5076066;28;20212;-77
2020/12/09 01:41:06;;;;;;;37.53;17.10;;;;;;;4.57;100.00;97048.47;5077208;28;20220;-75
2020/12/09 01:43:44;;;;;;;41.37;17.57;;;;;;;4.57;100.00;97059.03;5084127;28;20206;-75
2020/12/09 01:46:12;;;;;;;41.40;16.97;;;;;;;4.52;100.00;97058.78;5078844;28;20197;-75
2020/12/09 01:48:39;;;;;;;37.20;16.70;;;;;;;4.30;100.00;97069.47;5082659;28;20226;-76
2020/12/09 01:51:06;;;;;;;40.93;17.60;;;;;;;4.17;100.00;97071.97;5082722;28;20205;-76
2020/12/09 01:53:33;;;;;;;41.97;16.47;;;;;;;4.25;100.00;97075.31;5080972;28;20693;-76
2020/12/09 01:56:00;;;;;;;41.47;17.73;;;;;;;4.35;100.00;97075.84;5088811;28;20292;-75
2020/12/09 01:58:27;;;;;;;39.23;15.43;;;;;;;4.85;100.00;97064.41;5086221;28;20253;-75
2020/12/09 02:00:54;;;;;;;41.40;15.40;;;;;;;4.93;100.00;97066.94;5081613;28;20239;-74
2020/12/09 02:03:21;;;;;;;39.57;15.27;;;;;;;5.06;100.00;97062.59;5083037;28;20197;-75
2020/12/09 02:05:48;;;;;;;44.63;17.50;;;;;;;4.96;100.00;97069.19;5088853;28;20197;-74
2020/12/09 02:08:15;;;;;;;41.93;17.70;;;;;;;4.39;100.00;97076.31;5082921;28;20234;-74
2020/12/09 02:10:42;;;;;;;38.70;16.43;;;;;;;4.53;100.00;97072.81;5080975;28;20209;-75
2020/12/09 02:13:09;;;;;;;44.00;17.07;;;;;;;4.67;100.00;97080.69;5080926;28;20280;-74
2020/12/09 02:15:36;;;;;;;40.97;16.90;;;;;;;4.77;100.00;97096.25;5086012;28;20225;-75
2020/12/09 02:18:03;;;;;;;41.83;17.80;;;;;;;4.82;100.00;97105.25;5081926;28;20256;-75
2020/12/09 02:20:30;;;;;;;37.43;15.80;;;;;;;4.91;100.00;97104.13;5082360;28;20245;-75
2020/12/09 02:22:58;;;;;;;38.73;16.93;;;;;;;4.88;100.00;97109.78;5084892;28;20193;-74
2020/12/09 02:25:24;;;;;;;40.20;16.87;;;;;;;4.90;100.00;97106.97;5084326;28;20197;-75
2020/12/09 02:27:51;;;;;;;37.07;16.77;;;;;;;5.06;100.00;97104.91;5085836;28;20212;-75
2020/12/09 02:30:18;;;;;;;40.17;16.70;;;;;;;4.88;100.00;97120.34;5084772;28;20205;-75
2020/12/09 02:32:45;;;;;;;44.43;17.67;;;;;;;4.59;100.00;97123.09;5082296;28;20198;-75
2020/12/09 02:35:12;;;;;;;38.43;17.60;;;;;;;4.64;100.00;97127.81;5081528;28;20212;-74
2020/12/09 02:37:39;;;;;;;37.90;16.60;;;;;;;5.07;100.00;97125.03;5081410;28;20223;-75
2020/12/09 02:40:06;;;;;;;39.50;18.07;;;;;;;4.86;100.00;97127.66;5080336;28;20567;-75
2020/12/09 02:42:33;;;;;;;38.97;16.67;;;;;;;4.63;100.00;97126.19;5081788;28;20208;-76
2020/12/09 02:45:00;;;;;;;44.93;17.23;;;;;;;4.95;100.00;97126.56;5079356;28;20200;-75
2020/12/09 02:47:27;;;;;;;45.70;17.53;;;;;;;4.79;100.00;97133.88;5078348;28;20233;-75
2020/12/09 02:49:54;;;;;;;39.50;16.17;;;;;;;4.57;100.00;97133.00;5084924;28;20220;-76
2020/12/09 02:52:20;;;;;;;42.60;17.03;;;;;;;4.50;100.00;97139.22;5073750;28;20205;-77
2020/12/09 02:54:47;;;;;;;39.67;16.70;;;;;;;4.86;100.00;97140.88;5084429;28;20807;-75
2020/12/09 02:57:15;;;;;;;40.90;16.67;;;;;;;4.56;100.00;97135.84;5078106;28;20261;-75
2020/12/09 02:59:42;;;;;;;36.77;16.00;;;;;;;5.06;100.00;97133.97;5093153;28;20196;-74
2020/12/09 03:02:08;;;;;;;44.17;17.83;;;;;;;4.80;100.00;97133.72;5084484;28;20204;-74
2020/12/09 03:04:35;;;;;;;43.73;17.23;;;;;;;4.79;100.00;97137.34;5083844;28;20206;-74
2020/12/09 03:07:02;;;;;;;42.57;17.13;;;;;;;4.93;100.00;97133.84;5075917;28;20225;-75
2020/12/09 03:09:29;;;;;;;44.07;18.17;;;;;;;4.69;100.00;97134.19;5063874;28;20230;-75
2020/12/09 03:11:56;;;;;;;41.90;17.40;;;;;;;4.63;100.00;97137.53;5072874;28;20832;-75
2020/12/09 03:14:23;;;;;;;38.97;16.27;;;;;;;4.86;100.00;97138.25;5074999;28;20194;-75
2020/12/09 03:16:50;;;;;;;36.43;15.83;;;;;;;4.52;100.00;97145.16;5073018;28;20616;-75
2020/12/09 03:19:17;;;;;;;42.20;17.93;;;;;;;4.43;100.00;97146.25;5070222;28;20669;-74
2020/12/09 03:21:44;;;;;;;37.97;16.63;;;;;;;5.12;100.00;97145.66;5071016;28;20646;-75
2020/12/09 03:24:11;;;;;;;39.50;17.17;;;;;;;5.09;100.00;97149.50;5088139;28;20228;-74
2020/12/09 03:26:38;;;;;;;45.93;18.20;;;;;;;4.95;100.00;97149.50;5081620;28;20223;-74
2020/12/09 03:29:05;;;;;;;39.40;16.70;;;;;;;5.09;100.00;97146.84;5080965;28;20229;-74
2020/12/09 03:31:32;;;;;;;44.80;18.03;;;;;;;5.16;100.00;97149.53;5078355;28;20202;-76
2020/12/09 03:33:59;;;;;;;37.07;16.23;;;;;;;5.18;100.00;97148.34;5081043;28;20195;-75
2020/12/09 03:36:26;;;;;;;39.43;17.67;;;;;;;5.10;100.00;97147.66;5075259;28;20278;-75
2020/12/09 03:38:53;;;;;;;46.43;17.70;;;;;;;5.10;100.00;97139.72;5090825;28;20204;-75
2020/12/09 03:41:20;;;;;;;42.23;17.70;;;;;;;5.02;100.00;97148.56;5084053;28;20208;-75
2020/12/09 03:43:46;;;;;;;42.63;17.43;;;;;;;5.00;100.00;97152.41;5087294;28;20707;-75
2020/12/09 03:46:13;;;;;;;35.50;16.37;;;;;;;5.18;100.00;97153.63;5090137;28;20270;-75
2020/12/09 03:48:41;;;;;;;43.00;17.63;;;;;;;5.10;100.00;97151.13;5099813;28;20239;-75
2020/12/09 03:51:08;;;;;;;37.77;16.33;;;;;;;5.08;100.00;97158.41;5088018;28;20208;-75
2020/12/09 03:53:34;;;;;;;37.50;17.00;;;;;;;4.99;100.00;97156.91;5094175;28;20664;-75
2020/12/09 03:56:01;;;;;;;41.17;17.13;;;;;;;5.20;100.00;97151.63;5086635;28;20204;-75
2020/12/09 03:58:28;;;;;;;40.93;18.13;;;;;;;5.00;100.00;97145.31;5087205;28;20223;-75
2020/12/09 04:00:55;;;;;;;37.53;16.83;;;;;;;5.01;100.00;97133.72;5077355;28;20195;-74
2020/12/09 04:03:21;;;;;;;41.30;17.20;;;;;;;5.13;100.00;97132.22;5088465;28;20210;-74
2020/12/09 04:05:49;;;;;;;39.40;17.90;;;;;;;5.19;100.00;97128.81;5067027;28;20199;-74
2020/12/09 04:08:16;;;;;;;38.63;17.03;;;;;;;4.81;100.00;97139.78;5080462;28;20666;-74
2020/12/09 04:10:43;;;;;;;37.70;15.33;;;;;;;4.95;100.00;97133.66;5073791;28;20200;-75
2020/12/09 04:13:10;;;;;;;37.87;16.70;;;;;;;5.03;100.00;97142.28;5080664;28;20209;-75
2020/12/09 04:15:36;;;;;;;37.63;15.87;;;;;;;4.98;100.00;97147.31;5081728;28;20202;-74
2020/12/09 04:18:03;;;;;;;41.83;17.43;;;;;;;5.05;100.00;97150.03;5074765;28;20238;-75
2020/12/09 04:20:30;;;;;;;34.70;17.30;;;;;;;4.66;100.00;97154.84;5080405;28;20209;-74
2020/12/09 04:22:58;;;;;;;39.37;17.90;;;;;;;4.66;100.00;97163.63;5056943;28;20670;-74
2020/12/09 04:25:24;;;;;;;37.97;16.73;;;;;;;4.63;100.00;97158.69;5081547;28;20208;-74
2020/12/09 04:27:51;;;;;;;44.17;17.83;;;;;;;4.49;100.00;97162.19;5083415;28;20209;-75
2020/12/09 04:30:18;;;;;;;42.10;19.40;;;;;;;4.72;100.00;97159.44;5083407;28;20221;-74
2020/12/09 04:32:45;;;;;;;39.87;17.43;;;;;;;4.97;100.00;97158.09;5079522;28;20565;-75
2020/12/09 04:35:12;;;;;;;37.77;15.90;;;;;;;4.89;100.00;97159.03;5072659;28;20202;-75
2020/12/09 04:37:40;;;;;;;41.30;18.00;;;;;;;4.70;100.00;97162.25;5079993;28;20217;-74
2020/12/09 04:40:08;;;;;;;44.90;18.30;;;;;;;4.88;100.00;97161.84;5075108;28;20197;-75
2020/12/09 04:42:35;;;;;;;37.40;16.30;;;;;;;4.81;100.00;97155.66;5082470;28;20227;-75
2020/12/09 04:45:01;;;;;;;46.87;18.70;;;;;;;4.77;100.00;97157.03;5077241;28;20284;-74
2020/12/09 04:47:30;;;;;;;41.93;18.03;;;;;;;4.85;100.00;97156.91;5079446;28;20228;-75
2020/12/09 04:50:06;;;;;;;40.70;18.77;;;;;;;4.85;100.00;97162.22;5071285;28;20559;-75
2020/12/09 04:52:46;;;;;;;39.43;16.77;;;;;;;4.82;100.00;97170.53;5081772;28;20220;-75
2020/12/09 04:55:15;;;;;;;40.53;16.13;;;;;;;4.95;100.00;97170.66;5083108;28;20222;-74
2020/12/09 04:58:10;;;;;;;42.50;16.53;;;;;;;4.97;100.00;97168.66;5091339;28;20602;-75
2020/12/09 05:00:40;;;;;;;40.60;16.87;;;;;;;5.00;100.00;97177.03;5076283;28;20303;-75
2020/12/09 05:03:18;;;;;;;40.67;17.73;;;;;;;4.93;100.00;97177.97;5078863;28;20244;-75
2020/12/09 05:05:45;;;;;;;40.07;18.17;;;;;;;4.90;100.00;97179.16;5064844;28;20255;-75
2020/12/09 05:08:21;;;;;;;44.73;19.23;;;;;;;4.96;100.00;97182.88;5085002;28;20614;-75
2020/12/09 05:10:50;;;;;;;41.20;17.03;;;;;;;4.68;100.00;97195.16;5084097;28;20196;-75
2020/12/09 05:13:22;;;;;;;40.87;17.70;;;;;;;4.37;100.00;97200.59;5087543;28;20723;-75
2020/12/09 05:15:53;;;;;;;36.77;17.17;;;;;;;4.75;100.00;97198.69;5080170;28;20200;-76
2020/12/09 05:18:36;;;;;;;40.20;16.83;;;;;;;5.01;100.00;97194.53;5081072;28;20244;-77
2020/12/09 05:21:11;;;;;;;38.77;16.37;;;;;;;4.96;100.00;97201.38;5081324;28;20193;-77
2020/12/09 05:23:43;;;;;;;42.17;17.47;;;;;;;4.94;100.00;97209.50;5077157;28;20196;-78
2020/12/09 05:26:12;;;;;;;35.83;15.87;;;;;;;4.84;100.00;97206.34;5083831;28;20255;-78
2020/12/09 05:28:39;;;;;;;38.47;17.03;;;;;;;4.76;100.00;97210.88;5087837;28;20229;-77
2020/12/09 05:31:06;;;;;;;36.23;16.27;;;;;;;4.98;100.00;97216.03;5071020;28;20203;-77
2020/12/09 05:33:35;;;;;;;32.17;15.00;;;;;;;4.88;100.00;97220.00;5079117;28;20209;-77
2020/12/09 05:36:03;;;;;;;37.43;16.37;;;;;;;4.83;100.00;97220.53;5076134;28;20198;-77
2020/12/09 05:38:30;;;;;;;36.20;15.17;;;;;;;4.92;100.00;97211.50;5079364;28;20628;-76
2020/12/09 05:40:58;;;;;;;33.03;15.10;;;;;;;4.84;100.00;97218.72;5099217;28;20197;-80
2020/12/09 05:43:27;;;;;;;36.10;15.97;;;;;;;4.82;100.00;97210.97;5094955;28;20207;-77
2020/12/09 05:45:53;;;;;;;35.50;15.07;;;;;;;4.73;100.00;97216.56;5084388;28;20633;-76
2020/12/09 05:48:21;;;;;;;33.30;15.40;;;;;;;4.42;100.00;97222.00;5075883;28;20230;-76
2020/12/09 05:50:53;;;;;;;37.13;15.77;;;;;;;4.51;100.00;97218.28;5087143;28;20197;-76
2020/12/09 05:53:21;;;;;;;39.93;16.43;;;;;;;4.57;100.00;97216.75;5084930;28;20201;-77
2020/12/09 05:55:54;;;;;;;33.70;14.93;;;;;;;4.53;100.00;97211.00;5088491;28;20206;-78
2020/12/09 05:58:26;;;;;;;36.77;16.03;;;;;;;4.33;100.00;97214.38;5093398;28;20228;-79
2020/12/09 06:01:13;;;;;;;31.17;15.20;;;;;;;4.65;100.00;97214.00;5089234;28;20197;-78
2020/12/09 06:03:42;;;;;;;32.67;14.70;;;;;;;4.70;100.00;97208.97;5090920;28;20670;-79
2020/12/09 06:06:14;;;;;;;32.00;13.93;;;;;;;4.41;100.00;97208.97;5085562;28;20212;-78
2020/12/09 06:08:44;;;;;;;34.57;14.33;;;;;;;4.70;100.00;97223.03;5085479;28;20575;-77
2020/12/09 06:11:12;;;;;;;37.43;15.20;;;;;;;4.70;100.00;97235.41;5082660;28;20207;-76
2020/12/09 06:13:40;;;;;;;33.80;14.97;;;;;;;4.69;100.00;97241.69;5080188;28;20209;-76
2020/12/09 06:16:08;;;;;;;35.03;15.33;;;;;;;4.76;100.00;97239.94;5081824;28;20212;-78
2020/12/09 06:18:36;;;;;;;30.67;15.23;;;;;;;4.38;100.00;97241.06;5080602;28;20223;-77
2020/12/09 06:21:04;;;;;;;34.17;14.83;;;;;;;4.59;100.00;97236.69;5076435;28;20685;-75
2020/12/09 06:23:31;;;;;;;31.53;14.23;;;;;;;4.36;100.00;97241.22;5076977;28;20200;-75
2020/12/09 06:26:00;;;;;;;29.90;14.10;;;;;;;4.77;100.00;97244.25;5079901;28;20200;-75
2020/12/09 06:28:29;;;;;;;34.80;15.47;;;;;;;4.75;100.00;97249.72;5083900;28;20239;-75
2020/12/09 06:30:57;;;;;;;31.17;13.50;;;;;;;4.91;100.00;97243.41;5081043;28;20193;-74
2020/12/09 06:33:36;;;;;;;35.63;15.70;;;;;;;4.91;100.00;97238.13;5088168;28;20204;-74
2020/12/09 06:36:17;;;;;;;28.80;14.40;;;;;;;4.98;100.00;97244.31;5088831;28;20247;-73
2020/12/09 06:39:11;;;;;;;38.83;14.47;;;;;;;4.96;100.00;97239.22;5078141;28;20308;-74
2020/12/09 06:41:40;;;;;;;36.60;15.70;;;;;;;5.13;100.00;97232.69;5068931;28;20687;-74
2020/12/09 06:44:08;;;;;;;37.57;15.03;;;;;;;4.90;100.00;97244.41;5084913;28;20206;-75
2020/12/09 06:46:43;;;;;;;32.70;15.07;;;;;;;4.66;100.00;97244.69;5075874;28;20210;-74
2020/12/09 06:49:40;;;;;;;33.20;15.07;;;;;;;4.97;100.00;97240.84;5084107;28;20213;-74
2020/12/09 06:52:29;;;;;;;35.03;16.40;;;;;;;4.96;100.00;97255.06;5076512;28;20288;-74
2020/12/09 06:54:56;;;;;;;39.87;16.67;;;;;;;4.80;100.00;97249.16;5080745;28;20196;-74
2020/12/09 06:57:25;;;;;;;33.73;13.77;;;;;;;5.01;100.00;97250.06;5075583;28;20257;-73
2020/12/09 07:00:13;;;;;;;35.07;14.67;;;;;;;5.00;100.00;97256.34;5079009;28;20192;-73
2020/12/09 07:02:41;;;;;;;35.17;15.07;;;;;;;4.99;100.00;97260.00;5072148;28;20403;-74
2020/12/09 07:05:12;;;;;;;33.93;15.50;;;;;;;5.09;100.00;97263.19;5075652;28;20219;-73
2020/12/09 07:07:40;;;;;;;33.53;15.40;;;;;;;5.00;100.00;97260.81;5086790;28;20227;-76
2020/12/09 07:10:13;;;;;;;39.47;17.50;;;;;;;4.95;100.00;97269.31;5081390;28;20712;-79
2020/12/09 07:12:39;;;;;;;35.60;14.93;;;;;;;5.05;100.00;97280.41;5087529;28;20202;-74
2020/12/09 07:15:07;;;;;;;37.07;15.63;;;;;;;4.83;100.00;97281.31;5088641;28;20212;-75
2020/12/09 07:17:33;;;;;;;36.23;16.33;;;;;;;4.79;100.00;97285.34;5074810;28;20698;-74
2020/12/09 07:20:01;;;;;;;34.70;15.87;;;;;;;5.13;100.00;97290.88;5079382;28;20705;-75
2020/12/09 07:22:28;;;;;;;37.90;16.47;;;;;;;4.96;100.00;97293.91;5083645;28;20212;-77
2020/12/09 07:24:56;;;;;;;38.63;16.43;;;;;;;4.74;100.00;97302.75;5068616;28;20201;-75
2020/12/09 07:27:24;;;;;;;35.00;16.47;;;;;;;4.94;100.00;97303.84;5090216;28;20220;-77
2020/12/09 07:29:53;;;;;;;37.43;16.83;;;;;;;4.82;100.00;97306.13;5077645;28;20214;-74
2020/12/09 07:32:21;;;;;;;36.90;16.87;;;;;;;5.00;100.00;97303.94;5077999;28;20692;-74
2020/12/09 07:34:52;;;;;;;34.50;15.50;;;;;;;5.10;100.00;97307.13;5069971;28;20193;-75
2020/12/09 07:37:21;;;;;;;35.40;16.03;;;;;;;5.17;100.00;97308.03;5080405;28;20226;-74
2020/12/09 07:39:50;;;;;;;38.27;16.37;;;;;;;5.22;100.00;97310.94;5091393;28;20207;-75
2020/12/09 07:42:17;;;;;;;37.73;16.50;;;;;;;5.32;100.00;97306.19;5088108;28;20198;-75
2020/12/09 07:44:45;;;;;;;42.50;16.40;;;;;;;5.38;100.00;97305.44;5083176;28;20664;-74
2020/12/09 07:47:13;;;;;;;33.80;15.73;;;;;;;5.13;100.00;97313.88;5072235;28;20227;-75
2020/12/09 07:49:50;;;;;;;40.20;16.50;;;;;;;5.26;100.00;97304.28;5082271;28;20225;-75
2020/12/09 07:52:23;;;;;;;37.53;16.47;;;;;;;5.30;100.00;97305.56;5091970;28;20189;-75
2020/12/09 07:54:53;;;;;;;40.20;17.33;;;;;;;5.34;100.00;97306.81;5067484;28;20224;-75
2020/12/09 07:57:22;;;;;;;36.13;16.90;;;;;;;5.16;100.00;97314.31;5080420;28;20221;-75
2020/12/09 07:59:52;;;;;;;35.30;16.73;;;;;;;5.14;100.00;97313.66;5091730;28;20852;-75
2020/12/09 08:02:20;;;;;;;35.70;16.07;;;;;;;5.18;100.00;97317.59;5089227;28;20200;-74
2020/12/09 08:04:48;;;;;;;37.27;16.80;;;;;;;5.04;100.00;97315.81;5092129;28;20204;-74
2020/12/09 08:07:16;;;;;;;38.07;16.27;;;;;;;5.07;100.00;97323.34;5076467;28;20221;-75
2020/12/09 08:09:59;;;;;;;44.00;17.63;;;;;;;5.14;100.00;97329.53;5070467;28;20567;-76
2020/12/09 08:12:27;;;;;;;38.63;15.87;;;;;;;4.91;100.00;97336.75;5083355;28;20661;-76
2020/12/09 08:14:54;;;;;;;40.13;17.67;;;;;;;4.76;100.00;97332.44;5080319;28;20211;-74
2020/12/09 08:17:27;;;;;;;41.20;18.03;;;;;;;5.09;100.00;97331.09;5077845;28;20614;-75
2020/12/09 08:20:02;;;;;;;40.50;17.53;;;;;;;4.84;100.00;97330.56;5082553;28;20562;-76
2020/12/09 08:22:29;;;;;;;42.50;17.83;;;;;;;5.12;100.00;97338.69;5088130;28;20197;-76
2020/12/09 08:25:09;;;;;;;39.60;16.73;;;;;;;5.19;100.00;97343.03;5069868;28;20213;-74
2020/12/09 08:27:40;;;;;;;43.83;18.63;;;;;;;5.24;100.00;97339.84;5076096;28;20229;-75
2020/12/09 08:30:24;;;;;;;38.53;17.50;;;;;;;5.22;100.00;97347.97;5066338;28;20225;-75
2020/12/09 08:33:00;;;;;;;36.07;15.83;;;;;;;5.15;100.00;97347.06;5066037;28;20667;-75
2020/12/09 08:35:27;;;;;;;35.87;17.53;;;;;;;5.31;100.00;97348.69;5087938;28;20194;-75
2020/12/09 08:37:55;;;;;;;42.73;17.23;;;;;;;5.24;100.00;97355.72;5073739;28;21432;-74
2020/12/09 08:40:23;;;;;;;39.73;18.27;;;;;;;4.89;100.00;97359.94;5071407;28;20195;-75
2020/12/09 08:42:51;;;;;;;43.73;17.93;;;;;;;5.14;100.00;97360.47;5077169;28;20210;-75
2020/12/09 08:45:18;;;;;;;39.40;16.97;;;;;;;5.26;100.00;97364.28;5082132;28;20568;-75
2020/12/09 08:47:45;;;;;;;42.57;17.07;;;;;;;5.30;100.00;97369.03;5082303;28;20218;-76
2020/12/09 08:50:12;;;;;;;40.47;17.33;;;;;;;5.41;100.00;97365.09;5081297;28;20226;-74
2020/12/09 08:52:38;;;;;;;39.73;18.00;;;;;;;5.17;100.00;97371.50;5082167;28;20211;-74
2020/12/09 08:55:05;;;;;;;41.37;16.93;;;;;;;5.24;100.00;97369.75;5079680;28;20575;-75
2020/12/09 08:57:33;;;;;;;42.50;17.80;;;;;;;5.25;100.00;97360.84;5076800;28;20241;-75
2020/12/09 09:00:00;;;;;;;39.60;17.27;;;;;;;5.23;100.00;97362.81;5077701;28;20205;-74
2020/12/09 09:02:27;;;;;;;37.43;16.53;;;;;;;5.26;100.00;97372.22;5063739;28;20211;-75
2020/12/09 09:04:53;;;;;;;35.13;17.23;;;;;;;4.93;100.00;97370.94;5068294;28;20569;-74
2020/12/09 09:07:20;;;;;;;42.93;19.60;;;;;;;5.01;100.00;97373.50;5066957;28;20225;-75
2020/12/09 09:09:47;;;;;;;39.17;18.50;;;;;;;4.98;100.00;97365.94;5089245;28;20227;-75
2020/12/09 09:12:14;;;;;;;38.07;17.60;;;;;;;5.20;100.00;97371.16;5081612;28;20212;-75
2020/12/09 09:14:41;;;;;;;42.53;19.70;;;;;;;5.39;100.00;97375.84;5074169;28;20215;-76
2020/12/09 09:17:08;;;;;;;36.77;17.60;;;;;;;5.54;100.00;97373.22;5080746;28;20226;-76
2020/12/09 09:19:35;;;;;;;39.20;17.47;;;;;;;5.42;100.00;97372.84;5081711;28;20202;-77
2020/12/09 09:22:02;;;;;;;41.57;17.20;;;;;;;5.55;100.00;97372.19;5071077;28;20210;-75
2020/12/09 09:24:28;;;;;;;38.20;17.33;;;;;;;5.27;100.00;97372.03;5081184;28;20553;-76
2020/12/09 09:26:55;;;;;;;34.77;17.67;;;;;;;5.41;100.00;97365.91;5074731;28;20564;-75
2020/12/09 09:29:22;;;;;;;44.07;18.80;;;;;;;5.23;100.00;97364.66;5071284;28;20221;-75
2020/12/09 09:31:50;;;;;;;37.13;16.87;;;;;;;5.44;100.00;97362.09;5082322;28;20206;-76
2020/12/09 09:34:16;;;;;;;39.70;17.73;;;;;;;5.32;100.00;97374.13;5074711;28;20257;-76
2020/12/09 09:36:44;;;;;;;37.63;18.00;;;;;;;5.10;100.00;97365.31;5072869;28;20218;-78
2020/12/09 09:39:11;;;;;;;42.40;17.83;;;;;;;5.06;100.00;97365.84;5080895;28;20230;-76
2020/12/09 09:41:39;;;;;;;37.63;17.33;;;;;;;5.29;100.00;97363.94;5067638;28;20251;-76
2020/12/09 09:44:06;;;;;;;40.77;18.13;;;;;;;5.07;100.00;97370.94;5069075;28;20205;-77
2020/12/09 09:46:33;;;;;;;41.17;17.30;;;;;;;5.59;100.00;97374.28;5081777;28;20567;-74
2020/12/09 09:49:01;;;;;;;39.93;18.80;;;;;;;5.31;100.00;97372.50;5075080;28;20353;-74
2020/12/09 09:51:27;;;;;;;38.43;18.27;;;;;;;5.62;100.00;97365.16;5078886;28;20239;-75
2020/12/09 09:53:55;;;;;;;42.57;18.83;;;;;;;5.28;100.00;97372.88;5067803;28;20285;-75
2020/12/09 09:56:22;;;;;;;41.40;19.33;;;;;;;5.49;100.00;97373.75;5072329;28;20214;-75
2020/12/09 09:58:48;;;;;;;44.83;18.10;;;;;;;5.29;100.00;97379.81;5074687;28;20211;-76
2020/12/09 10:01:16;;;;;;;48.37;18.83;;;;;;;5.13;100.00;97374.69;5081846;28;20203;-75
2020/12/09 10:03:43;;;;;;;44.73;19.00;;;;;;;5.32;100.00;97364.38;5072059;28;20683;-76
2020/12/09 10:06:10;;;;;;;39.00;18.60;;;;;;;5.41;100.00;97371.22;5080905;28;20222;-76
2020/12/09 10:08:37;;;;;;;46.67;17.43;;;;;;;5.45;100.00;97369.84;5079890;28;20215;-75
2020/12/09 10:11:04;;;;;;;44.93;19.17;;;;;;;5.04;100.00;97375.78;5076152;28;20226;-76
2020/12/09 10:13:32;;;;;;;40.27;18.87;;;;;;;5.06;100.00;97379.88;5070639;28;20210;-75
2020/12/09 10:15:58;;;;;;;39.37;17.43;;;;;;;5.16;100.00;97382.25;5083082;28;20204;-75
2020/12/09 10:18:25;;;;;;;41.13;17.37;;;;;;;5.32;100.00;97388.19;5070179;28;20322;-75
2020/12/09 10:20:52;;;;;;;45.87;19.53;;;;;;;5.40;100.00;97388.09;5072093;28;20277;-75
2020/12/09 10:23:21;;;;;;;47.23;19.10;;;;;;;5.31;100.00;97385.72;5082035;28;20228;-75
2020/12/09 10:25:47;;;;;;;44.17;19.20;;;;;;;5.40;100.00;97379.31;5081334;28;20205;-75
2020/12/09 10:28:14;;;;;;;42.80;18.87;;;;;;;5.06;100.00;97377.25;5080222;28;20733;-75
2020/12/09 10:30:45;;;;;;;40.60;19.20;;;;;;;4.78;100.00;97373.56;5075514;28;20246;-77
2020/12/09 10:33:12;;;;;;;38.63;17.73;;;;;;;4.95;100.00;97380.34;5072345;28;20280;-74
2020/12/09 10:35:39;;;;;;;40.57;18.23;;;;;;;5.37;100.00;97377.03;5080311;28;20205;-75
2020/12/09 10:38:06;;;;;;;44.97;18.87;;;;;;;5.15;100.00;97372.69;5078280;28;20235;-76
2020/12/09 10:40:34;;;;;;;38.17;18.10;;;;;;;5.33;100.00;97366.00;5069774;28;20207;-74
2020/12/09 10:43:01;;;;;;;36.57;16.40;;;;;;;5.66;100.00;97369.06;5082433;28;20201;-75
2020/12/09 10:45:27;;;;;;;39.10;18.20;;;;;;;5.35;100.00;97365.84;5076323;28;20239;-75
2020/12/09 10:47:54;;;;;;;44.40;19.17;;;;;;;5.08;100.00;97369.13;5078561;28;20578;-74
2020/12/09 10:50:21;;;;;;;39.43;19.00;;;;;;;5.35;100.00;97365.84;5078759;28;20249;-75
2020/12/09 10:52:48;;;;;;;44.37;18.17;;;;;;;5.30;100.00;97370.84;5073795;28;20277;-79
2020/12/09 10:55:14;;;;;;;37.80;16.27;;;;;;;5.47;100.00;97367.81;5086723;28;20197;-75
2020/12/09 10:57:42;;;;;;;44.57;19.70;;;;;;;5.17;100.00;97365.38;5077278;28;20225;-79
2020/12/09 11:00:09;;;;;;;43.20;18.10;;;;;;;5.70;100.00;97354.47;5073528;28;20207;-76
2020/12/09 11:02:36;;;;;;;37.50;16.70;;;;;;;5.71;100.00;97359.56;5075945;28;20203;-78
2020/12/09 11:05:03;;;;;;;41.70;19.03;;;;;;;5.66;100.00;97355.84;5081769;28;20772;-77
2020/12/09 11:07:31;;;;;;;40.10;17.97;;;;;;;5.10;100.00;97360.00;5075231;28;20594;-80
2020/12/09 11:09:57;;;;;;;36.70;17.70;;;;;;;5.35;100.00;97358.72;5076227;28;20205;-80
2020/12/09 11:12:24;;;;;;;39.17;17.20;;;;;;;5.72;100.00;97349.78;5074481;28;20217;-76
2020/12/09 11:14:52;;;;;;;40.03;18.00;;;;;;;5.62;100.00;97349.25;5073986;28;20229;-77
2020/12/09 11:17:19;;;;;;;42.37;16.57;;;;;;;5.68;100.00;97344.06;5070246;28;20782;-77
2020/12/09 11:19:46;;;;;;;41.87;18.27;;;;;;;5.62;100.00;97341.31;5075928;28;20658;-78
2020/12/09 11:22:13;;;;;;;40.00;17.10;;;;;;;5.63;100.00;97348.28;5075671;28;20204;-80